createdAt,value
2022-10-07T00:02:33.851Z,101136.22
2022-10-07T00:07:35.980Z,101152.81
2022-10-07T00:12:37.756Z,101146.47
2022-10-07T00:17:39.601Z,101134.50
2022-10-07T00:22:41.420Z,101125.81
2022-10-07T00:27:43.409Z,101127.44
2022-10-07T00:32:45.465Z,101118.66
2022-10-07T00:37:47.232Z,101126.59
2022-10-07T00:42:49.092Z,101113.97
2022-10-07T00:47:51.716Z,101107.88
2022-10-07T00:52:57.627Z,101102.22
2022-10-07T00:58:06.638Z,101107.97
2022-10-07T01:03:08.684Z,101100.56
2022-10-07T01:08:10.400Z,101095.75
2022-10-07T01:13:27.616Z,101094.34
2022-10-07T01:18:57.822Z,101090.13
2022-10-07T01:24:22.602Z,101092.38
2022-10-07T01:29:56.203Z,101080.38
2022-10-07T01:35:00.921Z,101065.13
2022-10-07T01:40:08.155Z,101058.81
2022-10-07T01:45:14.531Z,101041.78
2022-10-07T01:50:18.478Z,101036.22
2022-10-07T01:55:22.945Z,101042.09
2022-10-07T02:00:25.091Z,101026.97
2022-10-07T02:05:47.385Z,101027.81
2022-10-07T02:10:57.305Z,101016.38
2022-10-07T02:16:20.077Z,101016.94
2022-10-07T02:21:27.055Z,101008.81
2022-10-07T02:26:31.054Z,101006.91
2022-10-07T02:31:34.325Z,101002.72
2022-10-07T02:36:40.810Z,101006.06
2022-10-07T02:42:00.483Z,100989.75
2022-10-07T02:47:11.525Z,100987.63
2022-10-07T02:52:17.587Z,100994.66
2022-10-07T02:57:23.376Z,100994.28
2022-10-07T03:02:31.334Z,100990.09
2022-10-07T03:07:35.331Z,100979.22
2022-10-07T03:12:38.409Z,100980.94
2022-10-07T03:17:40.662Z,100978.41
2022-10-07T03:22:43.741Z,100968.50
2022-10-07T03:27:48.505Z,100960.91
2022-10-07T03:32:50.948Z,100965.59
2022-10-07T03:37:53.570Z,100964.63
2022-10-07T03:42:55.341Z,100950.25
2022-10-07T03:47:58.215Z,100958.34
2022-10-07T03:53:00.603Z,100933.84
2022-10-07T03:58:02.809Z,100929.44
2022-10-07T04:03:07.710Z,100928.47
2022-10-07T04:08:12.229Z,100926.91
2022-10-07T04:13:14.301Z,100921.66
2022-10-07T04:18:16.638Z,100913.16
2022-10-07T04:23:18.515Z,100903.16
2022-10-07T04:28:24.322Z,100909.00
2022-10-07T04:33:31.264Z,100905.38
2022-10-07T04:38:34.444Z,100903.25
2022-10-07T04:43:38.449Z,100900.06
2022-10-07T04:48:45.607Z,100896.88
2022-10-07T04:53:56.784Z,100897.38
2022-10-07T04:59:03.857Z,100897.69
2022-10-07T05:04:05.768Z,100889.84
2022-10-07T05:09:08.544Z,100897.41
2022-10-07T05:14:15.225Z,100886.00
2022-10-07T05:19:17.283Z,100882.50
2022-10-07T05:24:19.824Z,100874.59
2022-10-07T05:29:23.529Z,100867.75
2022-10-07T05:34:27.489Z,100864.88
2022-10-07T05:39:30.437Z,100860.81
2022-10-07T05:44:39.951Z,100864.13
2022-10-07T05:49:41.972Z,100858.25
2022-10-07T05:54:44.401Z,100859.91
2022-10-07T05:59:47.945Z,100857.88
2022-10-07T06:04:49.689Z,100855.22
2022-10-07T06:10:10.795Z,100839.22
2022-10-07T06:15:14.119Z,100848.63
2022-10-07T06:20:19.014Z,100843.81
2022-10-07T06:25:23.497Z,100842.28
2022-10-07T06:30:26.227Z,100839.63
2022-10-07T06:35:30.855Z,100838.59
2022-10-07T06:40:33.537Z,100832.31
2022-10-07T06:45:35.401Z,100837.59
2022-10-07T06:50:37.569Z,100836.38
2022-10-07T06:55:39.397Z,100832.56
2022-10-07T07:00:41.631Z,100832.53
2022-10-07T07:05:45.808Z,100834.50
2022-10-07T07:10:52.209Z,100830.97
2022-10-07T07:15:59.088Z,100824.44
2022-10-07T07:21:04.914Z,100821.31
2022-10-07T07:26:07.371Z,100808.81
2022-10-07T07:31:12.875Z,100809.28
2022-10-07T07:36:16.577Z,100802.47
2022-10-07T07:41:27.199Z,100799.50
2022-10-07T07:46:34.547Z,100791.91
2022-10-07T07:51:36.808Z,100793.88
2022-10-07T07:56:39.331Z,100778.91
2022-10-07T08:01:41.317Z,100772.16
2022-10-07T08:06:43.622Z,100765.94
2022-10-07T08:11:45.521Z,100766.50
2022-10-07T08:16:51.461Z,100760.00
2022-10-07T08:21:54.381Z,100762.13
2022-10-07T08:27:00.111Z,100750.19
2022-10-07T08:32:01.852Z,100738.47
2022-10-07T08:37:03.809Z,100728.97
2022-10-07T08:42:37.601Z,100722.84
2022-10-07T08:47:44.223Z,100722.13
2022-10-07T08:52:53.445Z,100708.81
2022-10-07T08:58:26.851Z,100702.81
2022-10-07T09:03:28.466Z,100698.50
2022-10-07T09:08:40.341Z,100702.66
2022-10-07T09:14:12.386Z,100692.31
2022-10-07T09:19:39.559Z,100684.84
2022-10-07T09:29:51.397Z,100675.84
2022-10-07T09:34:53.434Z,100657.53
2022-10-07T09:39:57.982Z,100654.03
2022-10-07T09:45:25.732Z,100640.78
2022-10-07T09:50:44.024Z,100635.97
2022-10-07T09:55:52.470Z,100641.78
2022-10-07T10:00:56.753Z,100630.88
2022-10-07T10:06:09.687Z,100612.22
2022-10-07T10:11:20.569Z,100614.50
2022-10-07T10:16:25.457Z,100611.66
2022-10-07T10:21:36.897Z,100603.22
2022-10-07T10:27:03.732Z,100597.34
2022-10-07T10:32:11.295Z,100584.69
2022-10-07T10:37:18.506Z,100582.50
2022-10-07T10:42:35.485Z,100567.72
2022-10-07T10:48:13.568Z,100566.94
2022-10-07T10:53:34.534Z,100549.81
2022-10-07T10:58:48.123Z,100550.59
2022-10-07T11:04:17.286Z,100532.28
2022-10-07T11:09:39.773Z,100527.44
2022-10-07T11:14:49.011Z,100514.13
2022-10-07T11:20:05.933Z,100506.88
2022-10-07T11:25:23.274Z,100499.03
2022-10-07T11:30:31.954Z,100486.75
2022-10-07T11:35:57.476Z,100481.03
2022-10-07T11:41:48.888Z,100467.19
2022-10-07T11:46:51.822Z,100459.22
2022-10-07T11:52:05.151Z,100442.06
2022-10-07T11:57:06.992Z,100439.78
2022-10-07T12:02:30.825Z,100428.41
2022-10-07T12:07:32.900Z,100430.88
2022-10-07T12:12:46.762Z,100419.16
2022-10-07T12:17:58.891Z,100412.56
2022-10-07T12:23:18.863Z,100403.81
2022-10-07T12:28:23.593Z,100399.03
2022-10-07T12:33:43.029Z,100396.88
2022-10-07T12:38:59.237Z,100391.63
2022-10-07T12:44:24.030Z,100377.78
2022-10-07T12:49:41.049Z,100378.16
2022-10-07T12:54:49.873Z,100366.06
2022-10-07T13:00:13.553Z,100371.94
2022-10-07T13:05:39.597Z,100356.84
2022-10-07T13:10:56.492Z,100356.34
2022-10-07T13:16:47.884Z,100349.09
2022-10-07T13:22:09.540Z,100339.75
2022-10-07T13:27:12.095Z,100332.75
2022-10-07T13:32:15.399Z,100323.47
2022-10-07T13:37:37.736Z,100318.66
2022-10-07T13:42:39.430Z,100318.06
2022-10-07T13:47:43.469Z,100308.00
2022-10-07T13:52:48.255Z,100300.06
2022-10-07T13:57:50.513Z,100291.19
2022-10-07T14:02:52.808Z,100280.00
2022-10-07T14:07:56.999Z,100271.16
2022-10-07T14:13:03.334Z,100267.50
2022-10-07T14:18:05.632Z,100257.81
2022-10-07T14:23:31.252Z,100250.94
2022-10-07T14:28:34.950Z,100253.34
2022-10-07T14:34:05.393Z,100240.81
2022-10-07T14:39:30.921Z,100233.50
2022-10-07T14:44:32.664Z,100236.44
2022-10-07T14:49:34.358Z,100222.09
2022-10-07T14:54:36.082Z,100212.31
2022-10-07T14:59:37.952Z,100205.38
2022-10-07T15:04:40.322Z,100194.94
2022-10-07T15:09:43.656Z,100189.00
2022-10-07T15:14:45.343Z,100187.91
2022-10-07T15:19:47.016Z,100180.59
2022-10-07T15:24:48.961Z,100182.31
2022-10-07T15:29:53.793Z,100175.81
2022-10-07T15:34:55.641Z,100172.06
2022-10-07T15:39:58.838Z,100161.78
2022-10-07T15:45:00.504Z,100157.41
2022-10-07T15:50:02.260Z,100153.44
2022-10-07T15:55:07.949Z,100156.81
2022-10-07T16:00:10.805Z,100160.78
2022-10-07T16:05:15.147Z,100154.69
2022-10-07T16:10:16.816Z,100167.19
2022-10-07T16:15:18.484Z,100168.22
2022-10-07T16:20:20.966Z,100165.09
2022-10-07T16:25:22.624Z,100168.69
2022-10-07T16:30:42.696Z,100164.44
2022-10-07T16:35:44.425Z,100160.50
2022-10-07T16:40:53.921Z,100160.28
2022-10-07T16:45:55.578Z,100157.56
2022-10-07T16:50:58.277Z,100153.19
2022-10-07T16:56:04.721Z,100149.91
2022-10-07T17:01:12.815Z,100155.50
2022-10-07T17:06:16.246Z,100160.88
2022-10-07T17:11:29.281Z,100155.25
2022-10-07T17:16:37.855Z,100156.97
2022-10-07T17:21:41.913Z,100153.84
2022-10-07T17:26:44.679Z,100147.59
2022-10-07T17:31:50.280Z,100153.38
2022-10-07T17:36:52.102Z,100149.06
2022-10-07T17:41:53.797Z,100147.09
2022-10-07T17:46:58.622Z,100160.72
2022-10-07T17:52:00.321Z,100154.56
2022-10-07T17:57:01.984Z,100156.19
2022-10-07T18:02:03.652Z,100150.25
2022-10-07T18:07:05.306Z,100151.88
2022-10-07T18:12:25.685Z,100144.16
2022-10-07T18:17:27.430Z,100143.72
2022-10-07T18:22:29.098Z,100139.97
2022-10-07T18:27:31.164Z,100136.31
2022-10-07T18:32:33.072Z,100124.59
2022-10-07T18:37:34.882Z,100124.28
2022-10-07T18:42:37.701Z,100114.88
2022-10-07T18:47:39.367Z,100112.19
2022-10-07T18:52:41.280Z,100107.41
2022-10-07T18:57:43.027Z,100100.13
2022-10-07T19:02:46.145Z,100101.16
2022-10-07T19:07:48.220Z,100103.00
2022-10-07T19:13:08.552Z,100102.63
2022-10-07T19:18:10.637Z,100099.31
2022-10-07T19:23:12.326Z,100107.47
2022-10-07T19:28:14.137Z,100104.25
2022-10-07T19:33:16.174Z,100113.28
2022-10-07T19:38:17.831Z,100119.00
2022-10-07T19:43:19.525Z,100110.25
2022-10-07T19:48:21.654Z,100109.31
2022-10-07T19:53:23.325Z,100106.97
2022-10-07T19:58:27.057Z,100105.59
2022-10-07T20:03:28.729Z,100088.28
2022-10-07T20:08:33.213Z,100100.22
2022-10-07T20:13:36.138Z,100091.00
2022-10-07T20:18:40.373Z,100083.28
2022-10-07T20:23:44.547Z,100089.81
2022-10-07T20:28:48.308Z,100091.69
2022-10-07T20:33:52.690Z,100092.88
2022-10-07T20:39:38.182Z,100080.41
2022-10-07T20:44:40.081Z,100069.13
2022-10-07T20:49:42.365Z,100062.28
2022-10-07T20:54:47.849Z,100056.00
2022-10-07T20:59:49.821Z,100050.31
2022-10-07T21:04:51.589Z,100040.38
2022-10-07T21:09:53.296Z,100050.66
2022-10-07T21:14:56.322Z,100056.22
2022-10-07T21:19:57.989Z,100040.59
2022-10-07T21:24:59.637Z,100037.34
2022-10-07T21:30:01.307Z,100039.38
2022-10-07T21:35:02.994Z,100022.38
2022-10-07T21:40:04.946Z,100023.22
2022-10-07T21:45:07.199Z,100020.69
2022-10-07T21:50:11.265Z,100014.16
2022-10-07T21:55:12.933Z,100021.53
2022-10-07T22:00:16.012Z,100012.81
2022-10-07T22:05:17.750Z,100008.59
2022-10-07T22:10:19.417Z,99996.53
2022-10-07T22:15:21.068Z,100003.25
2022-10-07T22:20:22.749Z,99996.69
2022-10-07T22:25:24.408Z,99975.38
2022-10-07T22:30:26.080Z,99973.34
2022-10-07T22:35:27.741Z,99968.63
2022-10-07T22:40:29.455Z,99976.38
2022-10-07T22:45:32.233Z,99967.97
2022-10-07T22:50:33.979Z,99960.72
2022-10-07T22:55:37.242Z,99957.03
2022-10-07T23:00:38.912Z,99955.69
2022-10-07T23:05:40.572Z,99937.06
2022-10-07T23:10:42.987Z,99932.19
2022-10-07T23:15:46.748Z,99945.13
2022-10-07T23:20:48.797Z,99936.88
2022-10-07T23:25:51.878Z,99929.75
2022-10-07T23:30:53.628Z,99931.56
2022-10-07T23:35:57.160Z,99924.69
2022-10-07T23:40:59.609Z,99928.72
2022-10-07T23:46:01.794Z,99926.34
2022-10-07T23:51:05.048Z,99915.44
2022-10-07T23:56:07.365Z,99915.28
